Terminal Aerodrome Forecast
Issued by NWS Bismarck, ND

Home | Current Version | Previous Version | Text Only | Print | Product List | Glossary Off
Versions: 1 2 3 4 5 6 7 8 9 10 11 12 13 14 15 16 17 18 19 20 21 22 23

490
FTUS43 KBIS 182328
TAFISN
TAF
KISN 182328Z 1900/1924 08008KT P6SM BKN070
     FM190700 09007KT P6SM BKN030
     FM190800 09007KT P6SM BKN015
     FM191200 09007KT 4SM BR OVC008
     FM191800 10008KT P6SM BKN015
     FM192100 11008KT P6SM BKN250=

USA.gov is the U.S. government's official web portal to all federal, state and local government web resources and services.